createdAt,value
2022-09-20T00:01:21.920Z,13.78
2022-09-20T00:03:52.523Z,13.71
2022-09-20T00:06:21.902Z,14.06
2022-09-20T00:08:50.600Z,14.18
2022-09-20T00:11:21.296Z,13.56
2022-09-20T00:13:51.971Z,13.81
2022-09-20T00:16:23.702Z,13.93
2022-09-20T00:18:52.820Z,13.78
2022-09-20T00:21:23.287Z,13.40
2022-09-20T00:23:51.276Z,13.78
2022-09-20T00:26:19.658Z,13.98
2022-09-20T00:28:48.073Z,13.77
2022-09-20T00:31:16.842Z,13.53
2022-09-20T00:34:03.815Z,13.49
2022-09-20T00:36:32.255Z,13.71
2022-09-20T00:39:02.175Z,13.97
2022-09-20T00:41:31.689Z,13.91
2022-09-20T00:44:00.249Z,13.35
2022-09-20T00:46:34.808Z,13.84
2022-09-20T00:49:09.377Z,13.99
2022-09-20T00:51:41.785Z,13.32
2022-09-20T00:54:15.867Z,13.27
2022-09-20T00:56:47.608Z,13.66
2022-09-20T00:59:19.751Z,13.69
2022-09-20T01:02:00.854Z,13.80
2022-09-20T01:04:30.757Z,13.40
2022-09-20T01:07:02.709Z,13.26
2022-09-20T01:09:30.714Z,13.73
2022-09-20T01:12:02.982Z,13.46
2022-09-20T01:14:31.030Z,13.52
2022-09-20T01:17:05.384Z,13.47
2022-09-20T01:19:40.938Z,13.28
2022-09-20T01:22:22.158Z,12.72
2022-09-20T01:24:59.139Z,13.62
2022-09-20T01:27:40.793Z,13.71
2022-09-20T01:30:12.973Z,13.55
2022-09-20T01:32:51.639Z,13.65
2022-09-20T01:35:21.290Z,13.22
2022-09-20T01:38:04.606Z,12.91
2022-09-20T01:40:40.396Z,13.31
2022-09-20T01:43:19.654Z,13.09
2022-09-20T01:45:49.996Z,13.58
2022-09-20T01:48:31.336Z,13.38
2022-09-20T01:51:27.477Z,13.43
2022-09-20T01:54:33.514Z,13.76
2022-09-20T01:57:35.766Z,13.81
2022-09-20T02:00:14.201Z,13.68
2022-09-20T02:03:17.297Z,13.59
2022-09-20T02:05:59.108Z,13.43
2022-09-20T02:08:44.061Z,13.61
2022-09-20T02:11:16.801Z,13.71
2022-09-20T02:14:09.735Z,13.52
2022-09-20T02:16:46.966Z,13.77
2022-09-20T02:19:34.009Z,13.87
2022-09-20T02:22:15.856Z,13.95
2022-09-20T02:24:50.227Z,13.39
2022-09-20T02:27:27.913Z,13.33
2022-09-20T02:30:11.343Z,13.81
2022-09-20T02:32:59.766Z,13.34
2022-09-20T02:35:41.054Z,13.94
2022-09-20T02:38:16.545Z,13.61
2022-09-20T02:41:08.420Z,13.64
2022-09-20T02:43:46.353Z,13.51
2022-09-20T02:46:23.519Z,13.76
2022-09-20T02:49:01.563Z,13.55
2022-09-20T02:51:37.025Z,13.46
2022-09-20T02:54:16.394Z,13.67
2022-09-20T02:56:51.576Z,13.37
2022-09-20T02:59:28.915Z,13.84
2022-09-20T03:02:08.046Z,13.78
2022-09-20T03:04:53.167Z,13.83
2022-09-20T03:07:33.256Z,13.98
2022-09-20T03:10:12.083Z,13.40
2022-09-20T03:12:53.465Z,14.08
2022-09-20T03:15:31.338Z,14.10
2022-09-20T03:18:08.604Z,14.20
2022-09-20T03:20:47.285Z,13.77
2022-09-20T03:23:32.498Z,14.18
2022-09-20T03:26:09.347Z,13.97
2022-09-20T03:28:55.445Z,13.72
2022-09-20T03:31:38.075Z,14.02
2022-09-20T03:34:17.060Z,13.88
2022-09-20T03:37:07.263Z,14.05
2022-09-20T03:40:11.518Z,13.94
2022-09-20T03:42:46.302Z,14.10
2022-09-20T03:45:30.750Z,13.58
2022-09-20T03:48:31.093Z,14.33
2022-09-20T03:51:14.005Z,13.94
2022-09-20T03:54:10.990Z,14.36
2022-09-20T03:57:07.350Z,14.21
2022-09-20T03:59:54.397Z,14.22
2022-09-20T04:02:37.385Z,14.26
2022-09-20T04:05:11.161Z,14.67
2022-09-20T04:07:54.814Z,14.61
2022-09-20T04:10:46.830Z,14.39
2022-09-20T04:13:31.199Z,14.63
2022-09-20T04:16:10.817Z,14.13
2022-09-20T04:18:44.533Z,13.92
2022-09-20T04:21:19.414Z,14.31
2022-09-20T04:23:54.253Z,14.15
2022-09-20T04:26:27.243Z,14.57
2022-09-20T04:29:00.123Z,14.37
2022-09-20T04:31:37.823Z,14.41
2022-09-20T04:34:13.194Z,14.46
2022-09-20T04:36:57.110Z,14.60
2022-09-20T04:39:36.564Z,14.22
2022-09-20T04:42:31.467Z,14.53
2022-09-20T04:45:42.497Z,14.48
2022-09-20T04:48:57.853Z,14.53
2022-09-20T04:52:11.310Z,14.43
2022-09-20T04:55:04.019Z,14.27
2022-09-20T04:58:08.725Z,14.27
2022-09-20T05:00:56.922Z,14.04
2022-09-20T05:03:59.866Z,14.28
2022-09-20T05:07:03.164Z,14.28
2022-09-20T05:09:52.263Z,14.34
2022-09-20T05:12:47.562Z,14.16
2022-09-20T05:15:43.390Z,14.23
2022-09-20T05:18:37.326Z,14.53
2022-09-20T05:21:24.246Z,14.29
2022-09-20T05:24:14.352Z,14.59
2022-09-20T05:26:56.676Z,14.75
2022-09-20T05:29:30.413Z,14.61
2022-09-20T05:32:07.973Z,13.92
2022-09-20T05:34:44.640Z,13.82
2022-09-20T05:37:23.777Z,14.35
2022-09-20T05:40:00.253Z,14.31
2022-09-20T05:42:39.637Z,14.28
2022-09-20T05:45:27.280Z,14.22
2022-09-20T05:48:05.389Z,14.66
2022-09-20T05:50:45.350Z,14.66
2022-09-20T05:53:38.682Z,14.87
2022-09-20T05:56:17.530Z,14.73
2022-09-20T05:59:02.459Z,14.54
2022-09-20T06:01:35.315Z,14.13
2022-09-20T06:04:17.524Z,14.29
2022-09-20T06:06:58.657Z,14.64
2022-09-20T06:09:57.374Z,14.29
2022-09-20T06:12:40.267Z,14.37
2022-09-20T06:15:20.890Z,14.65
2022-09-20T06:18:00.717Z,14.72
2022-09-20T06:20:35.090Z,14.34
2022-09-20T06:23:06.450Z,14.93
2022-09-20T06:25:42.893Z,14.76
2022-09-20T06:28:17.326Z,14.83
2022-09-20T06:30:48.885Z,14.84
2022-09-20T06:33:18.373Z,14.68
2022-09-20T06:35:58.292Z,15.02
2022-09-20T06:39:07.037Z,15.29
2022-09-20T06:41:37.451Z,14.98
2022-09-20T06:44:07.026Z,15.26
2022-09-20T06:46:36.832Z,14.78
2022-09-20T06:49:09.473Z,15.02
2022-09-20T06:51:40.114Z,15.23
2022-09-20T06:54:14.776Z,15.36
2022-09-20T06:56:44.838Z,15.55
2022-09-20T06:59:12.765Z,15.34
2022-09-20T07:01:40.788Z,15.32
2022-09-20T07:04:09.581Z,15.31
2022-09-20T07:06:39.007Z,15.42
2022-09-20T07:09:07.668Z,15.40
2022-09-20T07:11:35.630Z,15.54
2022-09-20T07:14:03.870Z,15.47
2022-09-20T07:16:31.911Z,15.67
2022-09-20T07:19:00.446Z,15.61
2022-09-20T07:21:28.423Z,15.76
2022-09-20T07:23:57.967Z,15.78
2022-09-20T07:26:28.376Z,16.15
2022-09-20T07:28:57.322Z,16.37
2022-09-20T07:31:27.600Z,17.59
2022-09-20T07:33:56.156Z,19.87
2022-09-20T07:36:24.186Z,20.01
2022-09-20T07:38:53.730Z,18.49
2022-09-20T07:41:23.765Z,17.71
2022-09-20T07:43:52.265Z,17.41
2022-09-20T07:46:22.220Z,16.63
2022-09-20T07:48:50.221Z,17.18
2022-09-20T07:51:18.114Z,17.01
2022-09-20T07:53:46.100Z,17.04
2022-09-20T07:56:15.404Z,16.85
2022-09-20T07:58:50.066Z,17.03
2022-09-20T08:01:21.187Z,17.12
2022-09-20T08:03:49.399Z,16.97
2022-09-20T08:06:18.702Z,16.75
2022-09-20T08:08:47.375Z,16.93
2022-09-20T08:11:17.165Z,17.37
2022-09-20T08:16:40.342Z,17.97
2022-09-20T08:19:08.926Z,18.64
2022-09-20T08:21:39.766Z,17.93
2022-09-20T08:24:08.025Z,18.46
2022-09-20T08:26:37.024Z,18.97
2022-09-20T08:29:07.190Z,18.91
2022-09-20T08:31:38.129Z,18.48
2022-09-20T08:34:08.946Z,17.98
2022-09-20T08:36:41.153Z,18.19
2022-09-20T08:42:02.958Z,18.36
2022-09-20T08:44:35.888Z,18.36
2022-09-20T08:47:15.059Z,17.91
2022-09-20T08:49:46.106Z,17.98
2022-09-20T08:52:19.061Z,17.92
2022-09-20T08:54:47.450Z,17.80
2022-09-20T08:57:17.753Z,17.58
2022-09-20T08:59:47.366Z,17.74
2022-09-20T09:02:18.470Z,17.64
2022-09-20T09:04:48.692Z,17.92
2022-09-20T09:07:21.680Z,16.98
2022-09-20T09:09:52.896Z,16.69
2022-09-20T09:12:24.509Z,17.19
2022-09-20T09:14:59.311Z,17.30
2022-09-20T09:17:29.319Z,17.27
2022-09-20T09:19:58.768Z,17.73
2022-09-20T09:22:32.175Z,17.41
2022-09-20T09:25:23.683Z,16.77
2022-09-20T09:27:57.370Z,17.09
2022-09-20T09:30:29.367Z,17.35
2022-09-20T09:33:26.501Z,17.60
2022-09-20T09:36:00.189Z,17.80
2022-09-20T09:38:30.936Z,18.48
2022-09-20T09:41:01.674Z,18.42
2022-09-20T09:43:33.428Z,18.82
2022-09-20T09:46:23.420Z,18.88
2022-09-20T09:49:11.694Z,20.09
2022-09-20T09:51:43.111Z,19.81
2022-09-20T09:54:19.752Z,19.49
2022-09-20T09:57:01.826Z,18.89
2022-09-20T09:59:40.254Z,18.91
2022-09-20T10:02:30.210Z,18.68
2022-09-20T10:05:05.191Z,18.31
2022-09-20T10:07:41.298Z,19.27
2022-09-20T10:10:26.901Z,18.47
2022-09-20T10:13:08.752Z,19.63
2022-09-20T10:15:45.907Z,19.81
2022-09-20T10:18:32.326Z,20.42
2022-09-20T10:21:10.077Z,20.68
2022-09-20T10:24:08.867Z,20.32
2022-09-20T10:27:06.903Z,20.50
2022-09-20T10:29:46.920Z,20.80
2022-09-20T10:32:32.402Z,21.44
2022-09-20T10:35:16.923Z,21.32
2022-09-20T10:37:56.731Z,21.50
2022-09-20T10:40:48.846Z,21.47
2022-09-20T10:43:28.984Z,22.07
2022-09-20T10:46:30.728Z,21.08
2022-09-20T10:49:05.129Z,21.37
2022-09-20T10:51:45.558Z,21.74
2022-09-20T10:54:26.536Z,21.56
2022-09-20T10:57:13.253Z,21.50
2022-09-20T10:59:51.224Z,22.02
2022-09-20T11:02:37.213Z,22.46
2022-09-20T11:05:19.340Z,23.32
2022-09-20T11:07:59.630Z,22.95
2022-09-20T11:10:33.400Z,24.17
2022-09-20T11:13:05.915Z,23.16
2022-09-20T11:15:41.690Z,22.20
2022-09-20T11:18:20.916Z,22.68
2022-09-20T11:20:55.265Z,22.95
2022-09-20T11:23:29.983Z,22.13
2022-09-20T11:26:02.019Z,22.65
2022-09-20T11:28:37.076Z,22.13
2022-09-20T11:31:11.385Z,22.26
2022-09-20T11:33:45.568Z,21.94
2022-09-20T11:36:20.226Z,21.31
2022-09-20T11:38:54.147Z,20.81
2022-09-20T11:41:27.099Z,20.84
2022-09-20T11:43:58.547Z,21.83
2022-09-20T11:46:30.201Z,21.92
2022-09-20T11:49:03.875Z,23.62
2022-09-20T11:52:13.123Z,23.72
2022-09-20T11:55:12.021Z,23.57
2022-09-20T11:57:40.682Z,23.26
2022-09-20T12:00:10.211Z,22.90
2022-09-20T12:02:47.118Z,23.42
2022-09-20T12:05:30.407Z,23.42
2022-09-20T12:08:01.388Z,23.17
2022-09-20T12:10:35.185Z,22.56
2022-09-20T12:13:05.595Z,23.66
2022-09-20T12:15:35.942Z,23.31
2022-09-20T12:18:29.182Z,23.04
2022-09-20T12:21:17.280Z,23.23
2022-09-20T12:24:11.597Z,23.32
2022-09-20T12:26:45.745Z,22.94
2022-09-20T12:29:54.262Z,22.67
2022-09-20T12:32:56.391Z,22.60
2022-09-20T12:36:18.384Z,21.11
2022-09-20T12:39:07.023Z,20.17
2022-09-20T12:41:52.341Z,20.59
2022-09-20T12:44:29.570Z,20.07
2022-09-20T12:47:01.736Z,20.69
2022-09-20T12:50:00.851Z,20.54
2022-09-20T12:53:00.490Z,21.05
2022-09-20T12:56:05.198Z,21.13
2022-09-20T12:58:39.661Z,20.74
2022-09-20T13:01:45.671Z,20.27
2022-09-20T13:04:51.949Z,20.65
2022-09-20T13:07:43.549Z,20.14
2022-09-20T13:10:23.920Z,20.98
2022-09-20T13:12:55.762Z,21.32
2022-09-20T13:15:25.313Z,21.26
2022-09-20T13:17:56.828Z,21.87
2022-09-20T13:20:29.837Z,22.20
2022-09-20T13:23:00.621Z,21.46
2022-09-20T13:25:29.415Z,20.72
2022-09-20T13:28:09.870Z,20.07
2022-09-20T13:30:42.286Z,19.45
2022-09-20T13:33:21.746Z,19.38
2022-09-20T13:35:52.348Z,19.12
2022-09-20T13:38:24.860Z,18.90
2022-09-20T13:41:02.359Z,18.69
2022-09-20T13:43:34.571Z,18.32
2022-09-20T13:46:11.358Z,18.40
2022-09-20T13:48:40.735Z,18.36
2022-09-20T13:51:18.806Z,18.52
2022-09-20T13:53:48.319Z,18.56
2022-09-20T13:56:22.738Z,18.29
2022-09-20T13:58:52.632Z,17.84
2022-09-20T14:01:33.717Z,17.89
2022-09-20T14:04:06.904Z,18.27
2022-09-20T14:06:35.743Z,18.20
2022-09-20T14:09:10.741Z,18.18
2022-09-20T14:11:44.110Z,18.62
2022-09-20T14:14:22.014Z,18.51
2022-09-20T14:16:58.026Z,18.61
2022-09-20T14:19:31.711Z,18.75
2022-09-20T14:22:04.199Z,19.08
2022-09-20T14:24:35.769Z,19.10
2022-09-20T14:27:17.517Z,19.25
2022-09-20T14:29:46.728Z,19.44
2022-09-20T14:32:40.146Z,18.80
2022-09-20T14:35:16.515Z,18.95
2022-09-20T14:37:47.097Z,19.30
2022-09-20T14:40:22.749Z,19.83
2022-09-20T14:42:54.689Z,19.71
2022-09-20T14:45:25.861Z,19.55
2022-09-20T14:47:58.715Z,19.86
2022-09-20T14:50:29.743Z,20.05
2022-09-20T14:53:03.755Z,19.82
2022-09-20T14:55:37.168Z,20.46
2022-09-20T14:58:10.879Z,20.45
2022-09-20T15:00:52.316Z,20.10
2022-09-20T15:03:28.294Z,20.27
2022-09-20T15:05:56.512Z,19.83
2022-09-20T15:08:25.287Z,19.69
2022-09-20T15:10:54.507Z,19.28
2022-09-20T15:13:22.655Z,19.52
2022-09-20T15:15:54.744Z,19.91
2022-09-20T15:18:38.128Z,20.17
2022-09-20T15:21:07.943Z,20.03
2022-09-20T15:23:39.724Z,20.54
2022-09-20T15:26:13.776Z,20.76
2022-09-20T15:28:45.276Z,20.53
2022-09-20T15:31:15.356Z,20.00
2022-09-20T15:33:45.095Z,20.26
2022-09-20T15:36:13.206Z,20.20
2022-09-20T15:38:41.325Z,20.21
2022-09-20T15:41:10.051Z,19.58
2022-09-20T15:43:38.318Z,20.04
2022-09-20T15:46:19.647Z,20.18
2022-09-20T15:48:49.543Z,20.05
2022-09-20T15:51:18.109Z,20.20
2022-09-20T15:53:49.474Z,20.20
2022-09-20T15:56:21.060Z,20.22
2022-09-20T15:58:59.206Z,20.31
2022-09-20T16:01:31.463Z,20.34
2022-09-20T16:04:01.432Z,20.53
2022-09-20T16:06:38.632Z,20.62
2022-09-20T16:09:08.279Z,20.38
2022-09-20T16:11:38.867Z,19.90
2022-09-20T16:14:10.189Z,19.68
2022-09-20T16:16:41.943Z,19.15
2022-09-20T16:19:23.966Z,19.48
2022-09-20T16:21:57.795Z,19.39
2022-09-20T16:24:28.520Z,19.41
2022-09-20T16:26:57.768Z,19.22
2022-09-20T16:29:29.123Z,19.14
2022-09-20T16:31:59.629Z,19.33
2022-09-20T16:34:31.407Z,19.15
2022-09-20T16:37:00.934Z,19.21
2022-09-20T16:39:29.746Z,19.03
2022-09-20T16:42:03.508Z,19.02
2022-09-20T16:44:32.184Z,18.92
2022-09-20T16:47:00.597Z,18.89
2022-09-20T16:49:30.206Z,18.43
2022-09-20T16:51:58.241Z,18.52
2022-09-20T16:54:31.022Z,18.39
2022-09-20T16:56:59.869Z,17.79
2022-09-20T16:59:27.832Z,18.45
2022-09-20T17:01:55.868Z,18.21
2022-09-20T17:04:24.155Z,18.45
2022-09-20T17:06:53.683Z,18.32
2022-09-20T17:09:21.584Z,18.57
2022-09-20T17:11:51.357Z,18.70
2022-09-20T17:14:21.860Z,18.48
2022-09-20T17:16:50.294Z,18.57
2022-09-20T17:19:19.964Z,18.11
2022-09-20T17:21:50.787Z,17.68
2022-09-20T17:24:22.057Z,18.06
2022-09-20T17:26:51.743Z,18.02
2022-09-20T17:29:21.054Z,18.01
2022-09-20T17:31:55.537Z,17.80
2022-09-20T17:34:25.459Z,17.95
2022-09-20T17:36:54.990Z,17.96
2022-09-20T17:39:28.706Z,17.82
2022-09-20T17:41:56.761Z,17.71
2022-09-20T17:44:25.197Z,17.59
2022-09-20T17:46:54.049Z,17.45
2022-09-20T17:49:23.717Z,17.54
2022-09-20T17:51:53.530Z,17.42
2022-09-20T17:54:23.529Z,17.30
2022-09-20T17:56:55.818Z,17.29
2022-09-20T17:59:24.855Z,17.28
2022-09-20T18:01:54.407Z,17.22
2022-09-20T18:04:24.503Z,16.69
2022-09-20T18:06:54.472Z,16.86
2022-09-20T18:09:25.296Z,16.99
2022-09-20T18:12:02.582Z,16.92
2022-09-20T18:14:33.897Z,17.02
2022-09-20T18:17:02.105Z,17.04
2022-09-20T18:19:34.208Z,16.79
2022-09-20T18:22:02.590Z,16.83
2022-09-20T18:24:30.818Z,16.74
2022-09-20T18:27:01.888Z,16.82
2022-09-20T18:29:33.416Z,16.74
2022-09-20T18:32:01.664Z,16.78
2022-09-20T18:34:33.340Z,16.68
2022-09-20T18:37:03.710Z,16.70
2022-09-20T18:39:33.422Z,16.59
2022-09-20T18:42:04.047Z,16.52
2022-09-20T18:44:34.320Z,16.47
2022-09-20T18:47:03.298Z,16.35
2022-09-20T18:49:31.750Z,16.35
2022-09-20T18:52:03.358Z,16.35
2022-09-20T18:54:32.121Z,16.36
2022-09-20T18:57:02.349Z,16.27
2022-09-20T18:59:30.743Z,16.19
2022-09-20T19:02:21.513Z,16.19
2022-09-20T19:05:21.121Z,16.09
2022-09-20T19:07:57.596Z,16.00
2022-09-20T19:10:38.207Z,15.95
2022-09-20T19:13:20.317Z,16.03
2022-09-20T19:16:02.154Z,15.98
2022-09-20T19:18:51.333Z,15.90
2022-09-20T19:21:24.149Z,15.85
2022-09-20T19:24:06.450Z,15.67
2022-09-20T19:26:38.519Z,15.70
2022-09-20T19:29:18.542Z,15.53
2022-09-20T19:31:49.034Z,15.53
2022-09-20T19:34:21.462Z,15.53
2022-09-20T19:37:01.750Z,15.28
2022-09-20T19:39:41.907Z,15.34
2022-09-20T19:42:19.933Z,15.38
2022-09-20T19:44:58.245Z,15.39
2022-09-20T19:47:36.154Z,15.46
2022-09-20T19:50:15.790Z,15.45
2022-09-20T19:52:43.990Z,15.40
2022-09-20T19:55:13.432Z,15.37
2022-09-20T19:57:46.914Z,15.34
2022-09-20T20:00:19.581Z,15.07
2022-09-20T20:02:48.580Z,15.10
2022-09-20T20:05:19.714Z,15.15
2022-09-20T20:07:54.823Z,15.14
2022-09-20T20:10:29.391Z,15.06
2022-09-20T20:13:27.581Z,14.80
2022-09-20T20:16:03.633Z,15.01
2022-09-20T20:18:39.631Z,14.99
2022-09-20T20:21:14.692Z,14.98
2022-09-20T20:24:04.605Z,14.95
2022-09-20T20:26:32.819Z,14.88
2022-09-20T20:29:00.720Z,14.98
2022-09-20T20:31:30.408Z,14.80
2022-09-20T20:33:58.502Z,14.91
2022-09-20T20:36:26.456Z,14.89
2022-09-20T20:38:54.420Z,14.90
2022-09-20T20:41:23.649Z,14.83
2022-09-20T20:43:56.283Z,14.79
2022-09-20T20:46:25.128Z,14.74
2022-09-20T20:48:54.467Z,14.68
2022-09-20T20:51:23.979Z,14.65
2022-09-20T20:53:54.424Z,14.26
2022-09-20T20:56:25.685Z,14.34
2022-09-20T20:58:53.954Z,14.45
2022-09-20T21:01:23.362Z,14.45
2022-09-20T21:03:52.780Z,14.18
2022-09-20T21:06:24.713Z,14.16
2022-09-20T21:08:52.757Z,14.47
2022-09-20T21:11:23.419Z,14.58
2022-09-20T21:13:51.494Z,14.54
2022-09-20T21:16:21.767Z,14.47
2022-09-20T21:18:50.827Z,14.40
2022-09-20T21:21:20.832Z,14.40
2022-09-20T21:23:52.392Z,14.28
2022-09-20T21:26:21.260Z,14.17
2022-09-20T21:28:52.441Z,13.72
2022-09-20T21:31:21.901Z,14.06
2022-09-20T21:33:50.011Z,14.11
2022-09-20T21:36:19.528Z,13.87
2022-09-20T21:38:47.710Z,14.02
2022-09-20T21:41:19.916Z,14.01
2022-09-20T21:43:48.903Z,13.91
2022-09-20T21:46:18.922Z,13.91
2022-09-20T21:48:48.187Z,13.90
2022-09-20T21:51:19.227Z,13.85
2022-09-20T21:53:47.606Z,13.63
2022-09-20T21:56:18.534Z,13.88
2022-09-20T21:58:47.077Z,13.78
2022-09-20T22:01:18.392Z,13.83
2022-09-20T22:03:48.389Z,13.76
2022-09-20T22:06:18.691Z,13.60
2022-09-20T22:08:48.733Z,13.29
2022-09-20T22:11:19.123Z,13.65
2022-09-20T22:13:48.790Z,13.59
2022-09-20T22:16:18.835Z,13.13
2022-09-20T22:18:47.414Z,13.50
2022-09-20T22:21:17.212Z,13.67
2022-09-20T22:23:45.656Z,13.17
2022-09-20T22:26:15.721Z,13.58
2022-09-20T22:28:45.091Z,13.60
2022-09-20T22:31:14.546Z,13.38
2022-09-20T22:33:44.503Z,13.38
2022-09-20T22:36:15.218Z,13.48
2022-09-20T22:38:43.651Z,13.52
2022-09-20T22:41:12.926Z,13.40
2022-09-20T22:43:41.739Z,13.60
2022-09-20T22:46:12.884Z,13.51
2022-09-20T22:48:41.713Z,13.50
2022-09-20T22:51:11.002Z,13.45
2022-09-20T22:53:39.172Z,13.00
2022-09-20T22:56:08.955Z,13.61
2022-09-20T22:58:38.720Z,13.63
2022-09-20T23:01:09.017Z,13.74
2022-09-20T23:03:39.410Z,13.40
2022-09-20T23:06:15.317Z,13.36
2022-09-20T23:08:43.968Z,13.63
2022-09-20T23:11:12.186Z,13.54
2022-09-20T23:13:40.182Z,13.54
2022-09-20T23:16:13.130Z,13.51
2022-09-20T23:18:42.807Z,13.39
2022-09-20T23:21:10.869Z,13.27
2022-09-20T23:23:39.752Z,13.36
2022-09-20T23:26:09.571Z,13.25
2022-09-20T23:28:38.396Z,13.22
2022-09-20T23:31:08.732Z,13.23
2022-09-20T23:33:36.962Z,13.25
2022-09-20T23:36:09.508Z,13.17
2022-09-20T23:38:37.843Z,13.17
2022-09-20T23:41:05.994Z,13.06
2022-09-20T23:43:34.787Z,13.15
2022-09-20T23:46:03.262Z,13.10
2022-09-20T23:48:31.336Z,13.06
2022-09-20T23:50:59.548Z,13.03
2022-09-20T23:53:28.902Z,13.20
2022-09-20T23:55:56.926Z,13.17
2022-09-20T23:58:25.159Z,12.99
